Time;durP1;ratioP1;P1;durP2;ratioP2;P2;SDS_P1;SDS_P2;PMS_P1;PMS_P2;Temp;Humidity;BMP_temperature;BMP_pressure;BME280_temperature;BME280_humidity;BME280_pressure;Samples;Min_cycle;Max_cycle;Signal;HPM_P1;HPM_P2
2023/10/15 00:01:53;;;;;;;7.20;1.50;;;9.50;99.90;;;;;;5097101;28;20092;-54
2023/10/15 00:04:22;;;;;;;6.60;1.50;;;9.50;99.90;;;;;;5105460;28;20119;-57
2023/10/15 00:06:48;;;;;;;5.10;1.42;;;9.50;99.90;;;;;;5094431;28;20042;-58
2023/10/15 00:09:14;;;;;;;7.20;1.52;;;9.50;99.90;;;;;;5095549;27;20048;-56
2023/10/15 00:11:40;;;;;;;5.88;1.50;;;9.40;99.90;;;;;;5094022;28;20044;-57
2023/10/15 00:14:06;;;;;;;8.32;1.45;;;9.40;99.90;;;;;;5094846;28;20180;-57
2023/10/15 00:16:33;;;;;;;7.35;1.50;;;9.30;99.90;;;;;;5095450;28;20089;-57
2023/10/15 00:19:09;;;;;;;7.75;2.05;;;9.30;99.90;;;;;;5097582;28;20126;-58
2023/10/15 00:21:35;;;;;;;7.03;1.73;;;9.30;99.90;;;;;;5104249;28;20036;-57
2023/10/15 00:24:05;;;;;;;5.47;1.45;;;9.30;99.90;;;;;;5098132;27;20474;-56
2023/10/15 00:26:31;;;;;;;7.55;1.50;;;9.20;99.90;;;;;;5096077;28;20043;-56
2023/10/15 00:28:57;;;;;;;7.32;1.40;;;9.20;99.90;;;;;;5101304;28;20359;-56
2023/10/15 00:31:24;;;;;;;11.68;1.50;;;9.20;99.90;;;;;;5107055;27;20040;-55
2023/10/15 00:33:50;;;;;;;8.35;2.20;;;9.10;99.90;;;;;;5095913;27;20078;-56
2023/10/15 00:36:16;;;;;;;8.20;1.63;;;9.20;99.90;;;;;;5102309;28;20074;-59
2023/10/15 00:38:46;;;;;;;6.05;1.70;;;9.10;99.90;;;;;;5092589;28;20411;-58
2023/10/15 00:41:16;;;;;;;7.80;1.85;;;9.10;99.90;;;;;;5094422;28;20040;-58
2023/10/15 00:43:59;;;;;;;8.20;1.67;;;9.10;99.90;;;;;;5110056;27;20103;-59
2023/10/15 00:46:30;;;;;;;5.95;1.48;;;9.10;99.90;;;;;;5094684;28;20040;-57
2023/10/15 00:48:56;;;;;;;10.85;1.67;;;9.10;99.90;;;;;;5099903;27;20406;-58
2023/10/15 00:51:22;;;;;;;6.97;1.88;;;9.10;99.90;;;;;;5097027;27;20043;-58
2023/10/15 00:53:54;;;;;;;8.95;1.88;;;9.00;99.90;;;;;;5095137;28;20043;-59
2023/10/15 00:56:28;;;;;;;5.93;1.48;;;9.00;99.90;;;;;;5075019;28;20108;-57
2023/10/15 00:59:08;;;;;;;9.90;1.65;;;9.00;99.90;;;;;;5094755;28;20503;-57
2023/10/15 01:01:35;;;;;;;9.40;1.52;;;9.00;99.90;;;;;;5110880;27;20052;-58
2023/10/15 01:04:02;;;;;;;8.63;2.13;;;9.00;99.90;;;;;;5096517;28;20036;-58
2023/10/15 01:06:38;;;;;;;8.50;1.30;;;8.90;99.90;;;;;;5093295;28;20040;-58
2023/10/15 01:09:50;;;;;;;7.93;2.08;;;8.90;99.90;;;;;;5100396;27;20048;-57
2023/10/15 01:11:51;;;;;;;4.40;1.30;;;9.00;99.90;;;;;;5081687;28;20128;-56
2023/10/15 01:14:33;;;;;;;4.85;0.80;;;8.90;99.90;;;;;;5101427;28;20040;-57
2023/10/15 01:17:02;;;;;;;4.40;1.20;;;8.90;99.90;;;;;;5091495;28;20048;-56
2023/10/15 01:19:33;;;;;;;11.13;1.73;;;9.00;99.90;;;;;;5095755;28;20035;-58
2023/10/15 01:22:02;;;;;;;5.25;1.20;;;8.90;99.90;;;;;;5094393;28;20044;-57
2023/10/15 01:24:32;;;;;;;8.32;1.38;;;8.90;99.90;;;;;;5096653;28;20384;-58
2023/10/15 01:26:59;;;;;;;4.45;1.40;;;8.90;99.90;;;;;;5097756;28;20047;-58
2023/10/15 01:29:27;;;;;;;4.30;0.82;;;8.90;99.90;;;;;;5095343;28;20034;-58
2023/10/15 01:32:03;;;;;;;5.47;1.08;;;8.90;99.90;;;;;;5093536;28;20602;-57
2023/10/15 01:34:36;;;;;;;6.78;1.15;;;8.80;99.90;;;;;;5093933;28;20048;-57
2023/10/15 01:37:05;;;;;;;4.85;1.10;;;8.80;99.90;;;;;;5099968;28;20047;-57
2023/10/15 01:39:40;;;;;;;4.38;0.90;;;8.80;99.90;;;;;;5111005;27;20124;-56
2023/10/15 01:42:06;;;;;;;4.30;0.90;;;8.90;99.90;;;;;;5110516;27;20043;-54
2023/10/15 01:44:47;;;;;;;11.70;1.88;;;8.90;99.90;;;;;;5097217;28;20046;-56
2023/10/15 01:47:13;;;;;;;10.07;1.13;;;9.00;99.90;;;;;;5096609;28;20040;-57
2023/10/15 01:49:39;;;;;;;7.70;1.45;;;9.00;99.90;;;;;;5091795;28;20043;-57
2023/10/15 01:52:24;;;;;;;10.55;2.38;;;9.10;99.90;;;;;;5097882;28;20043;-56
2023/10/15 01:54:50;;;;;;;10.32;1.25;;;9.20;99.90;;;;;;5089008;28;20040;-57
2023/10/15 01:57:16;;;;;;;9.57;1.45;;;9.10;99.90;;;;;;5093243;28;20067;-58
2023/10/15 01:59:48;;;;;;;7.85;1.48;;;9.10;99.90;;;;;;5078046;28;20044;-57
2023/10/15 02:02:18;;;;;;;12.60;2.55;;;9.00;99.90;;;;;;5091795;28;20052;-58
2023/10/15 02:04:47;;;;;;;7.05;1.50;;;9.00;99.90;;;;;;5097590;28;20035;-57
2023/10/15 02:07:17;;;;;;;7.20;1.38;;;9.00;99.90;;;;;;5097479;27;20045;-57
2023/10/15 02:09:43;;;;;;;7.90;1.38;;;8.90;99.90;;;;;;5088969;28;20040;-57
2023/10/15 02:12:12;;;;;;;4.38;1.08;;;8.80;99.90;;;;;;5094287;28;20514;-57
2023/10/15 02:14:41;;;;;;;7.80;1.15;;;8.70;99.90;;;;;;5098416;28;20040;-58
2023/10/15 02:17:13;;;;;;;5.25;1.17;;;8.50;99.90;;;;;;5091594;28;20671;-56
2023/10/15 02:19:42;;;;;;;3.95;1.05;;;8.30;99.90;;;;;;5102823;28;20361;-55
2023/10/15 02:22:15;;;;;;;2.75;0.75;;;8.30;99.90;;;;;;5097558;28;20456;-55
2023/10/15 02:24:56;;;;;;;8.23;1.10;;;8.10;99.90;;;;;;5079058;28;20038;-58
2023/10/15 02:27:25;;;;;;;7.03;1.15;;;8.10;99.90;;;;;;5092313;28;20121;-57
2023/10/15 02:29:51;;;;;;;5.07;1.00;;;8.00;99.90;;;;;;5094977;28;20024;-54
2023/10/15 02:32:28;;;;;;;3.60;1.10;;;8.00;99.90;;;;;;5102912;28;20556;-56
2023/10/15 02:34:57;;;;;;;5.55;1.00;;;8.00;99.90;;;;;;5097412;28;20407;-54
2023/10/15 02:37:28;;;;;;;3.17;0.70;;;8.00;99.90;;;;;;5099900;28;20043;-57
2023/10/15 02:39:57;;;;;;;4.45;0.65;;;8.10;99.90;;;;;;5097615;28;20204;-54
2023/10/15 02:42:35;;;;;;;5.35;0.90;;;8.10;99.90;;;;;;5103539;27;20051;-56
2023/10/15 02:45:01;;;;;;;4.55;0.88;;;8.00;99.90;;;;;;5097563;28;20047;-58
2023/10/15 02:47:41;;;;;;;4.00;0.80;;;8.00;99.90;;;;;;5093775;28;20117;-58
2023/10/15 02:50:10;;;;;;;3.67;0.60;;;7.90;99.90;;;;;;5100339;28;20040;-56
2023/10/15 02:52:35;;;;;;;4.28;0.80;;;7.90;99.90;;;;;;5100096;28;20043;-53
2023/10/15 02:55:10;;;;;;;3.28;0.98;;;8.00;99.90;;;;;;5098462;28;20524;-56
2023/10/15 02:57:43;;;;;;;3.10;0.73;;;8.00;99.90;;;;;;5097827;28;20052;-56
2023/10/15 03:00:18;;;;;;;3.83;0.80;;;8.00;99.90;;;;;;5093134;28;20805;-57
2023/10/15 03:02:44;;;;;;;2.75;0.40;;;8.10;99.90;;;;;;5103687;28;20058;-57
2023/10/15 03:05:15;;;;;;;5.22;0.77;;;8.10;99.90;;;;;;5100167;27;20114;-57
2023/10/15 03:07:44;;;;;;;3.95;0.68;;;8.10;99.90;;;;;;5113824;27;20336;-57
2023/10/15 03:10:21;;;;;;;4.40;0.88;;;8.10;99.90;;;;;;5083606;27;20036;-54
2023/10/15 03:12:48;;;;;;;5.75;1.00;;;8.10;99.90;;;;;;5098273;28;20525;-55
2023/10/15 03:15:14;;;;;;;4.80;0.70;;;8.10;99.90;;;;;;5084630;28;20157;-56
2023/10/15 03:17:41;;;;;;;6.03;0.90;;;8.00;99.90;;;;;;5096486;28;20093;-56
2023/10/15 03:22:51;;;;;;;4.90;1.00;;;8.00;99.90;;;;;;5099062;27;20059;-56
2023/10/15 03:25:18;;;;;;;3.50;0.80;;;8.00;99.90;;;;;;5097518;28;20080;-56
2023/10/15 03:27:46;;;;;;;1.42;0.60;;;8.00;99.90;;;;;;5080364;28;20082;-57
2023/10/15 03:30:13;;;;;;;2.75;0.73;;;8.00;99.90;;;;;;5100179;27;20052;-57
2023/10/15 03:32:46;;;;;;;10.07;1.40;;;7.90;99.90;;;;;;5104938;28;20055;-56
2023/10/15 03:38:14;;;;;;;4.40;0.80;;;7.90;99.90;;;;;;5085078;28;20139;-58
2023/10/15 03:40:47;;;;;;;3.25;0.73;;;7.90;99.90;;;;;;5094992;28;20263;-58
2023/10/15 03:43:20;;;;;;;2.63;0.63;;;7.90;99.90;;;;;;5102159;28;20048;-58
2023/10/15 03:45:52;;;;;;;5.00;1.00;;;7.90;99.90;;;;;;5093846;28;20043;-58
2023/10/15 03:48:32;;;;;;;6.38;0.80;;;8.00;99.90;;;;;;5079480;28;20146;-57
2023/10/15 03:51:00;;;;;;;3.88;0.82;;;8.00;99.90;;;;;;5097920;28;20127;-57
2023/10/15 03:53:28;;;;;;;6.43;0.98;;;8.00;99.90;;;;;;5101503;28;20604;-57
2023/10/15 03:55:58;;;;;;;4.80;1.13;;;8.00;99.90;;;;;;5098947;28;20150;-58
2023/10/15 03:58:28;;;;;;;3.05;0.63;;;8.00;99.90;;;;;;5096838;27;20071;-58
2023/10/15 04:03:43;;;;;;;4.63;0.68;;;8.00;99.90;;;;;;5101113;28;20120;-58
2023/10/15 04:06:09;;;;;;;6.93;1.10;;;8.00;99.90;;;;;;5097351;28;20662;-58
2023/10/15 04:08:39;;;;;;;2.50;0.85;;;8.00;99.90;;;;;;5093533;28;20415;-58
2023/10/15 04:11:08;;;;;;;4.97;0.68;;;8.10;99.90;;;;;;5099236;27;20514;-58
2023/10/15 04:13:35;;;;;;;2.78;0.65;;;8.10;99.90;;;;;;5097176;28;20100;-58
2023/10/15 04:16:01;;;;;;;8.15;2.28;;;8.10;99.90;;;;;;5084510;22;20047;-58
2023/10/15 04:18:27;;;;;;;8.55;0.75;;;8.10;99.90;;;;;;5045389;28;20040;-57
2023/10/15 04:20:54;;;;;;;5.20;1.10;;;8.10;99.90;;;;;;5062746;28;20532;-56
2023/10/15 04:23:31;;;;;;;6.43;1.10;;;8.00;99.90;;;;;;5049007;28;20495;-57
2023/10/15 04:26:09;;;;;;;6.57;1.30;;;8.00;99.90;;;;;;5067846;28;20153;-57
2023/10/15 04:28:36;;;;;;;8.73;0.95;;;8.00;99.90;;;;;;5074738;28;20509;-58
2023/10/15 04:31:11;;;;;;;3.22;0.73;;;8.10;99.90;;;;;;5078422;28;20119;-58
2023/10/15 04:33:41;;;;;;;6.05;1.17;;;8.10;99.90;;;;;;5077922;28;20593;-58
2023/10/15 04:36:10;;;;;;;6.22;1.17;;;8.10;99.90;;;;;;5084069;28;20037;-60
2023/10/15 04:38:38;;;;;;;4.70;1.50;;;8.10;99.90;;;;;;5081027;28;20355;-59
2023/10/15 04:41:04;;;;;;;7.43;1.63;;;8.20;99.90;;;;;;5075416;28;20507;-58
2023/10/15 04:43:41;;;;;;;9.65;1.35;;;8.20;99.90;;;;;;5072484;28;20324;-57
2023/10/15 04:46:17;;;;;;;3.65;1.13;;;8.20;99.90;;;;;;5086909;28;20062;-58
2023/10/15 04:48:45;;;;;;;9.02;0.90;;;8.30;99.90;;;;;;5064488;28;20063;-57
2023/10/15 04:51:12;;;;;;;7.30;1.20;;;8.30;99.90;;;;;;5075110;28;20044;-58
2023/10/15 04:53:42;;;;;;;5.70;1.08;;;8.30;99.90;;;;;;5077659;28;20041;-58
2023/10/15 04:56:08;;;;;;;7.28;1.10;;;8.30;99.90;;;;;;5077262;28;20394;-57
2023/10/15 04:58:34;;;;;;;10.25;1.23;;;8.30;99.90;;;;;;5074103;28;20055;-57
2023/10/15 05:01:01;;;;;;;5.82;0.80;;;8.30;99.90;;;;;;5082102;28;20036;-57
2023/10/15 05:03:26;;;;;;;5.47;0.88;;;8.40;99.90;;;;;;5083824;28;20083;-56
2023/10/15 05:05:55;;;;;;;7.35;1.48;;;8.30;99.90;;;;;;5056415;28;20032;-57
2023/10/15 05:08:24;;;;;;;5.45;0.90;;;8.40;99.90;;;;;;5055941;28;20028;-56
2023/10/15 05:10:50;;;;;;;5.22;0.88;;;8.40;99.90;;;;;;5079246;28;20040;-56
2023/10/15 05:13:17;;;;;;;5.50;1.20;;;8.40;99.90;;;;;;5073233;28;20541;-55
2023/10/15 05:15:47;;;;;;;6.28;0.98;;;8.30;99.90;;;;;;5076084;28;20410;-58
2023/10/15 05:18:14;;;;;;;7.47;0.80;;;8.30;99.90;;;;;;5057091;28;20130;-57
2023/10/15 05:20:41;;;;;;;6.03;1.25;;;8.30;99.90;;;;;;5064915;28;20115;-57
2023/10/15 05:23:06;;;;;;;4.57;1.30;;;8.30;99.90;;;;;;5072118;28;20085;-58
2023/10/15 05:25:32;;;;;;;4.07;0.70;;;8.30;99.90;;;;;;5080551;28;20044;-57
2023/10/15 05:27:59;;;;;;;5.57;0.90;;;8.30;99.90;;;;;;5032914;28;20040;-57
2023/10/15 05:30:26;;;;;;;5.20;1.02;;;8.30;99.90;;;;;;5069378;28;20051;-56
2023/10/15 05:32:52;;;;;;;8.48;1.60;;;8.30;99.90;;;;;;5076545;28;20044;-58
2023/10/15 05:35:18;;;;;;;3.78;0.80;;;8.30;99.90;;;;;;5063823;28;20096;-55
2023/10/15 05:37:45;;;;;;;4.18;1.00;;;8.40;99.90;;;;;;5078024;28;20056;-56
2023/10/15 05:40:15;;;;;;;5.55;1.13;;;8.40;99.90;;;;;;5073726;28;20040;-57
2023/10/15 05:42:41;;;;;;;5.75;1.42;;;8.30;99.90;;;;;;5072764;28;20513;-56
2023/10/15 05:45:07;;;;;;;2.00;0.70;;;8.30;99.90;;;;;;5075510;28;20040;-57
2023/10/15 05:47:34;;;;;;;5.88;1.02;;;8.20;99.90;;;;;;5075054;28;20032;-57
2023/10/15 05:50:00;;;;;;;3.92;1.13;;;8.20;99.90;;;;;;5058946;28;20044;-58
2023/10/15 05:52:26;;;;;;;3.90;1.23;;;8.10;99.90;;;;;;5070464;28;20043;-55
2023/10/15 05:54:53;;;;;;;6.18;1.08;;;8.20;99.90;;;;;;5057329;28;20040;-58
2023/10/15 05:57:22;;;;;;;2.47;0.65;;;8.20;99.90;;;;;;5074686;28;20059;-57
2023/10/15 05:59:49;;;;;;;5.40;1.00;;;8.10;99.90;;;;;;5084212;28;20055;-57
2023/10/15 06:02:15;;;;;;;8.43;1.10;;;8.00;99.90;;;;;;5061294;28;20048;-58
2023/10/15 06:04:43;;;;;;;3.92;1.10;;;7.60;99.90;;;;;;5067189;28;20130;-58
2023/10/15 06:07:09;;;;;;;5.38;1.20;;;7.40;99.90;;;;;;5087501;28;20040;-60
2023/10/15 06:09:36;;;;;;;6.72;0.90;;;7.40;99.90;;;;;;5077897;28;20044;-59
2023/10/15 06:12:02;;;;;;;3.35;0.63;;;7.50;99.90;;;;;;5077216;28;20052;-59
2023/10/15 06:14:28;;;;;;;1.98;0.57;;;7.50;99.90;;;;;;5075418;28;20482;-58
2023/10/15 06:16:56;;;;;;;2.92;0.63;;;7.50;99.90;;;;;;5079999;28;20043;-59
2023/10/15 06:19:22;;;;;;;3.10;0.55;;;7.60;99.90;;;;;;5081059;28;20051;-57
2023/10/15 06:21:48;;;;;;;3.42;0.80;;;7.70;99.90;;;;;;5073538;28;20032;-59
2023/10/15 06:24:14;;;;;;;3.08;1.27;;;7.70;99.90;;;;;;5066717;28;21657;-57
2023/10/15 06:26:40;;;;;;;5.25;0.70;;;7.70;99.90;;;;;;5077849;28;20435;-57
2023/10/15 06:29:06;;;;;;;3.97;1.40;;;7.80;99.90;;;;;;5076814;28;20040;-58
2023/10/15 06:31:32;;;;;;;4.03;1.17;;;7.70;99.90;;;;;;5075005;28;20048;-59
2023/10/15 06:33:58;;;;;;;3.80;0.50;;;7.70;99.90;;;;;;5076877;28;20083;-57
2023/10/15 06:36:24;;;;;;;3.20;0.80;;;7.80;99.90;;;;;;5077484;28;20058;-58
2023/10/15 06:38:50;;;;;;;3.78;0.95;;;7.80;99.90;;;;;;5077058;28;20429;-58
2023/10/15 06:41:16;;;;;;;3.13;1.10;;;7.80;99.90;;;;;;5073846;28;20047;-58
2023/10/15 06:43:42;;;;;;;4.28;0.57;;;7.80;99.90;;;;;;5077794;28;20037;-57
2023/10/15 06:46:08;;;;;;;3.85;1.00;;;7.80;99.90;;;;;;5076969;28;20036;-58
2023/10/15 06:48:35;;;;;;;3.25;0.90;;;7.80;99.90;;;;;;5081586;28;20514;-57
2023/10/15 06:51:06;;;;;;;2.88;0.73;;;7.80;99.90;;;;;;5077198;28;20619;-58
2023/10/15 06:53:32;;;;;;;5.78;0.90;;;7.80;99.90;;;;;;5074064;28;20060;-57
2023/10/15 06:55:58;;;;;;;4.75;0.90;;;7.70;99.90;;;;;;5083909;28;20537;-56
2023/10/15 06:58:25;;;;;;;8.10;1.40;;;7.70;99.90;;;;;;5058783;28;20040;-56
2023/10/15 07:00:56;;;;;;;6.82;1.38;;;7.70;99.90;;;;;;5081526;28;20043;-58
2023/10/15 07:03:23;;;;;;;6.63;1.63;;;7.70;99.90;;;;;;5080356;28;20121;-57
2023/10/15 07:05:49;;;;;;;4.63;1.10;;;7.70;99.90;;;;;;5081654;28;20044;-56
2023/10/15 07:08:15;;;;;;;5.93;1.00;;;7.60;99.90;;;;;;5077537;28;20037;-58
2023/10/15 07:10:41;;;;;;;4.70;0.90;;;7.60;99.90;;;;;;5078528;28;20564;-57
2023/10/15 07:13:07;;;;;;;5.10;0.95;;;7.60;99.90;;;;;;5072412;28;20566;-58
2023/10/15 07:15:36;;;;;;;6.40;1.27;;;7.50;99.90;;;;;;5056025;28;20124;-58
2023/10/15 07:18:03;;;;;;;5.65;0.90;;;7.60;99.90;;;;;;5079004;28;20514;-59
2023/10/15 07:20:30;;;;;;;10.40;2.00;;;7.60;99.90;;;;;;5079938;28;20059;-56
2023/10/15 07:22:57;;;;;;;5.32;1.30;;;7.70;99.90;;;;;;5063954;28;20744;-58
2023/10/15 07:25:29;;;;;;;8.00;1.08;;;7.80;99.90;;;;;;5073595;28;20106;-58
2023/10/15 07:27:57;;;;;;;8.20;1.63;;;7.80;99.90;;;;;;5077730;28;20032;-56
2023/10/15 07:30:23;;;;;;;9.10;2.10;;;7.90;99.90;;;;;;5081462;28;20093;-58
2023/10/15 07:32:53;;;;;;;9.15;2.03;;;7.80;99.90;;;;;;5075185;28;20040;-59
2023/10/15 07:35:21;;;;;;;5.78;2.33;;;7.90;99.90;;;;;;5076513;28;20040;-59
2023/10/15 07:37:49;;;;;;;8.27;2.40;;;7.90;99.90;;;;;;5060864;28;20487;-58
2023/10/15 07:40:21;;;;;;;8.57;2.55;;;8.00;99.90;;;;;;5080931;28;20111;-58
2023/10/15 07:42:49;;;;;;;4.88;1.00;;;8.00;99.90;;;;;;5079735;28;20415;-59
2023/10/15 07:45:16;;;;;;;4.22;1.00;;;8.00;99.90;;;;;;5079874;28;20509;-58
2023/10/15 07:47:42;;;;;;;7.75;1.58;;;8.10;99.90;;;;;;5065277;28;20579;-58
2023/10/15 07:50:18;;;;;;;4.28;0.85;;;8.20;99.90;;;;;;5063995;28;20065;-59
2023/10/15 07:52:48;;;;;;;4.50;0.68;;;8.30;99.90;;;;;;5068106;28;20041;-55
2023/10/15 07:55:13;;;;;;;5.88;0.93;;;8.40;99.90;;;;;;5079712;28;20119;-56
2023/10/15 07:57:39;;;;;;;4.68;0.70;;;8.50;99.90;;;;;;5071170;28;20119;-55
2023/10/15 08:00:08;;;;;;;7.40;1.45;;;8.50;99.90;;;;;;5062419;28;20047;-55
2023/10/15 08:02:37;;;;;;;6.88;1.60;;;8.60;99.90;;;;;;5058571;28;20071;-58
2023/10/15 08:05:04;;;;;;;4.82;1.20;;;8.50;99.90;;;;;;5064837;28;20035;-56
2023/10/15 08:07:30;;;;;;;2.20;0.77;;;8.50;99.90;;;;;;5080323;28;20040;-54
2023/10/15 08:09:56;;;;;;;8.77;1.20;;;8.50;99.90;;;;;;5053854;28;20038;-53
2023/10/15 08:12:21;;;;;;;3.30;1.00;;;8.50;99.90;;;;;;5078783;28;20039;-53
2023/10/15 08:14:47;;;;;;;4.78;0.80;;;8.50;99.90;;;;;;5077049;28;20036;-55
2023/10/15 08:17:14;;;;;;;6.90;1.13;;;8.50;99.90;;;;;;5082533;28;20036;-57
2023/10/15 08:19:40;;;;;;;4.13;0.80;;;8.50;99.90;;;;;;5051994;28;20071;-57
2023/10/15 08:22:06;;;;;;;4.90;0.90;;;8.40;99.90;;;;;;5062438;28;20071;-54
2023/10/15 08:24:32;;;;;;;4.13;0.90;;;8.40;99.90;;;;;;5081933;28;20403;-57
2023/10/15 08:26:57;;;;;;;4.55;1.05;;;8.40;99.90;;;;;;5081556;28;20647;-57
2023/10/15 08:29:23;;;;;;;5.43;1.13;;;8.40;99.90;;;;;;5081825;28;20042;-56
2023/10/15 08:31:49;;;;;;;5.82;1.23;;;8.30;99.90;;;;;;5058694;28;20036;-56
2023/10/15 08:34:15;;;;;;;7.63;1.45;;;8.30;99.90;;;;;;5060516;28;20044;-54
2023/10/15 08:36:42;;;;;;;7.55;1.38;;;8.40;99.90;;;;;;5072349;28;20056;-56
2023/10/15 08:39:08;;;;;;;7.82;1.38;;;8.50;99.90;;;;;;5063502;28;20125;-56
2023/10/15 08:41:40;;;;;;;5.32;1.08;;;8.70;99.90;;;;;;5075339;28;20498;-54
2023/10/15 08:44:18;;;;;;;3.30;1.05;;;8.90;99.90;;;;;;5080711;28;20036;-56
2023/10/15 08:46:47;;;;;;;8.02;1.17;;;9.10;99.90;;;;;;5074225;28;20040;-56
2023/10/15 08:49:15;;;;;;;4.20;1.40;;;9.20;99.90;;;;;;5082111;28;20474;-56
2023/10/15 08:51:43;;;;;;;6.05;1.30;;;9.40;99.90;;;;;;5070729;28;20706;-56
2023/10/15 08:54:12;;;;;;;3.33;0.82;;;9.60;99.90;;;;;;5081435;28;20047;-57
2023/10/15 08:56:43;;;;;;;7.18;1.10;;;9.80;99.90;;;;;;5077934;28;20409;-56
2023/10/15 08:59:09;;;;;;;13.02;2.22;;;10.00;99.90;;;;;;5084896;28;20055;-54
2023/10/15 09:01:42;;;;;;;7.75;1.40;;;10.20;99.90;;;;;;5083041;28;20471;-57
2023/10/15 09:04:12;;;;;;;5.80;1.33;;;10.40;99.90;;;;;;5064501;28;20052;-56
2023/10/15 09:06:39;;;;;;;7.60;1.73;;;10.50;99.90;;;;;;5076081;28;20048;-59
2023/10/15 09:09:06;;;;;;;11.38;1.50;;;10.80;99.90;;;;;;5072144;28;20040;-57
2023/10/15 09:11:32;;;;;;;12.45;2.33;;;11.00;99.90;;;;;;5077997;28;20028;-56
2023/10/15 09:13:58;;;;;;;12.52;2.10;;;10.90;99.90;;;;;;5083433;28;20052;-55
2023/10/15 09:16:26;;;;;;;7.65;1.77;;;10.80;99.90;;;;;;5063219;28;20073;-58
2023/10/15 09:18:52;;;;;;;9.38;2.33;;;10.70;99.90;;;;;;5076821;28;20426;-58
2023/10/15 09:21:26;;;;;;;5.55;1.30;;;10.60;99.90;;;;;;5076196;28;20075;-58
2023/10/15 09:23:52;;;;;;;6.07;1.58;;;10.40;99.90;;;;;;5069052;28;20404;-58
2023/10/15 09:26:18;;;;;;;7.20;1.65;;;10.30;99.90;;;;;;5079320;28;20055;-58
2023/10/15 09:28:45;;;;;;;8.68;1.27;;;10.30;99.90;;;;;;5073498;28;20044;-58
2023/10/15 09:31:11;;;;;;;5.45;1.23;;;10.30;99.90;;;;;;5075591;28;20043;-58
2023/10/15 09:33:39;;;;;;;6.03;1.48;;;10.20;99.90;;;;;;5057383;28;20044;-58
2023/10/15 09:36:06;;;;;;;7.13;1.30;;;10.10;99.90;;;;;;5071041;28;20112;-58
2023/10/15 09:38:32;;;;;;;7.78;1.50;;;10.00;99.90;;;;;;5075177;28;20040;-58
2023/10/15 09:40:59;;;;;;;5.22;1.48;;;10.00;99.90;;;;;;5077291;28;20043;-58
2023/10/15 09:43:31;;;;;;;12.60;2.15;;;9.90;99.90;;;;;;5070616;28;20521;-58
2023/10/15 09:45:58;;;;;;;7.25;2.10;;;9.90;99.90;;;;;;5074601;28;20040;-58
2023/10/15 09:48:25;;;;;;;7.63;1.83;;;9.90;99.90;;;;;;5075021;28;20059;-58
2023/10/15 09:50:59;;;;;;;6.65;1.52;;;9.90;99.90;;;;;;5077285;28;20052;-58
2023/10/15 09:53:27;;;;;;;9.07;1.80;;;10.00;99.90;;;;;;5071256;28;20056;-58
2023/10/15 09:55:54;;;;;;;10.43;1.80;;;10.30;99.90;;;;;;5069888;28;20506;-58
2023/10/15 09:58:20;;;;;;;8.02;3.35;;;10.60;99.90;;;;;;5075369;28;20048;-58
2023/10/15 10:03:31;;;;;;;7.70;2.47;;;10.80;99.90;;;;;;5078596;28;20036;-58
2023/10/15 10:06:22;;;;;;;4.35;0.90;;;11.10;99.90;;;;;;5077569;28;20453;-58
2023/10/15 10:08:57;;;;;;;3.75;0.93;;;11.10;99.90;;;;;;5060137;28;20044;-58
2023/10/15 10:11:34;;;;;;;9.48;1.30;;;11.00;99.90;;;;;;5073017;28;20048;-58
2023/10/15 10:14:15;;;;;;;7.43;1.30;;;10.70;99.90;;;;;;5071561;28;20067;-58
2023/10/15 10:16:42;;;;;;;6.45;2.33;;;10.40;99.90;;;;;;5060107;28;20064;-59
2023/10/15 10:19:09;;;;;;;5.22;0.93;;;10.10;99.90;;;;;;5080113;28;20607;-58
2023/10/15 10:21:36;;;;;;;5.20;0.77;;;9.90;99.90;;;;;;5077930;28;20113;-59
2023/10/15 10:24:08;;;;;;;3.15;0.60;;;9.80;99.90;;;;;;5068606;28;20039;-59
2023/10/15 10:26:39;;;;;;;3.08;0.73;;;9.90;99.90;;;;;;5079732;28;20044;-59
2023/10/15 10:29:07;;;;;;;1.23;0.50;;;9.90;99.90;;;;;;5079268;28;20048;-57
2023/10/15 10:31:39;;;;;;;2.28;0.90;;;9.90;99.90;;;;;;5080194;28;20040;-58
2023/10/15 10:34:05;;;;;;;7.60;1.67;;;10.00;99.90;;;;;;5073382;28;20044;-58
2023/10/15 10:36:38;;;;;;;5.93;1.27;;;10.20;99.90;;;;;;5071515;28;20043;-57
2023/10/15 10:39:15;;;;;;;4.82;1.02;;;10.40;99.90;;;;;;5081364;28;20111;-58
2023/10/15 10:41:43;;;;;;;5.90;1.35;;;10.70;99.90;;;;;;5057772;28;20139;-59
2023/10/15 10:44:12;;;;;;;4.57;0.90;;;10.80;99.90;;;;;;5084058;28;20062;-57
2023/10/15 10:46:43;;;;;;;6.90;1.70;;;11.10;99.90;;;;;;5085132;28;20090;-59
2023/10/15 10:49:14;;;;;;;5.43;0.85;;;11.40;99.90;;;;;;5082264;28;20395;-59
2023/10/15 10:52:02;;;;;;;6.28;1.10;;;11.50;99.90;;;;;;5082579;28;20052;-60
2023/10/15 10:54:29;;;;;;;6.25;1.50;;;11.40;99.90;;;;;;5075912;28;20526;-59
2023/10/15 10:56:56;;;;;;;4.60;0.80;;;11.10;99.90;;;;;;5076139;28;20028;-59
2023/10/15 10:59:22;;;;;;;4.78;1.05;;;10.70;99.90;;;;;;5060484;28;20598;-57
2023/10/15 11:01:48;;;;;;;4.07;1.10;;;10.50;99.90;;;;;;5075085;28;20135;-59
2023/10/15 11:04:15;;;;;;;5.50;1.42;;;10.10;99.90;;;;;;5080035;28;20032;-59
2023/10/15 11:06:45;;;;;;;3.47;0.85;;;10.10;99.90;;;;;;5076098;28;20048;-59
2023/10/15 11:09:22;;;;;;;2.35;0.63;;;10.20;99.90;;;;;;5078434;28;20056;-58
2023/10/15 11:11:49;;;;;;;6.95;1.10;;;10.40;99.90;;;;;;5079139;28;20055;-59
2023/10/15 11:14:16;;;;;;;7.30;1.33;;;10.70;99.90;;;;;;5072762;28;20070;-58
2023/10/15 11:16:43;;;;;;;4.93;0.70;;;11.10;99.90;;;;;;5076126;28;20040;-58
2023/10/15 11:19:23;;;;;;;2.47;0.93;;;11.30;99.90;;;;;;5058982;28;20044;-58
2023/10/15 11:21:50;;;;;;;7.22;1.10;;;11.40;99.90;;;;;;5065186;28;20048;-59
2023/10/15 11:24:16;;;;;;;6.55;1.00;;;11.50;99.90;;;;;;5065393;28;20515;-58
2023/10/15 11:26:44;;;;;;;6.93;1.10;;;11.50;99.90;;;;;;5059872;28;20515;-58
2023/10/15 11:29:14;;;;;;;6.65;1.30;;;11.60;99.90;;;;;;5083590;28;20324;-58
2023/10/15 11:31:45;;;;;;;6.28;1.20;;;12.00;99.90;;;;;;5074135;28;20566;-58
2023/10/15 11:34:24;;;;;;;6.82;1.65;;;12.30;99.90;;;;;;5062113;28;20507;-58
2023/10/15 11:36:52;;;;;;;5.22;1.38;;;12.50;99.90;;;;;;5057376;28;20074;-57
2023/10/15 11:42:19;;;;;;;6.43;1.52;;;12.40;99.90;;;;;;5088671;28;20043;-59
2023/10/15 11:44:45;;;;;;;6.85;1.20;;;11.90;99.90;;;;;;5058640;28;20267;-58
2023/10/15 11:47:15;;;;;;;5.88;1.38;;;11.60;99.90;;;;;;5073070;28;20331;-59
2023/10/15 11:49:44;;;;;;;11.18;1.42;;;11.40;99.90;;;;;;5083578;28;20105;-58
2023/10/15 11:52:18;;;;;;;3.95;0.93;;;11.20;99.90;;;;;;5075076;28;20039;-59
2023/10/15 11:54:49;;;;;;;6.28;1.05;;;10.90;99.90;;;;;;5061565;28;20052;-58
2023/10/15 11:57:23;;;;;;;4.65;0.93;;;10.80;99.90;;;;;;5078866;28;20093;-57
2023/10/15 11:59:50;;;;;;;3.58;0.70;;;10.60;99.90;;;;;;5081061;28;20320;-57
2023/10/15 12:02:16;;;;;;;2.55;0.65;;;10.70;99.90;;;;;;5060959;28;20047;-54
2023/10/15 12:04:42;;;;;;;3.75;0.80;;;10.90;99.90;;;;;;5086030;28;20297;-57
2023/10/15 12:07:16;;;;;;;2.30;0.57;;;11.20;99.90;;;;;;5081703;28;20024;-57
2023/10/15 12:09:47;;;;;;;2.17;0.65;;;11.50;99.90;;;;;;5078832;28;20244;-56
2023/10/15 12:12:14;;;;;;;6.00;0.80;;;11.90;99.90;;;;;;5083150;28;20051;-58
2023/10/15 12:14:40;;;;;;;4.10;1.35;;;12.10;99.90;;;;;;5059909;28;20047;-57
2023/10/15 12:17:06;;;;;;;3.97;0.95;;;12.40;99.90;;;;;;5071605;28;20076;-57
2023/10/15 12:19:32;;;;;;;6.10;1.05;;;12.60;99.90;;;;;;5071982;28;20474;-58
2023/10/15 12:22:03;;;;;;;1.98;0.50;;;12.70;99.80;;;;;;5055510;28;20048;-57
2023/10/15 12:24:28;;;;;;;3.75;0.90;;;12.50;98.90;;;;;;5058371;28;20040;-57
2023/10/15 12:26:54;;;;;;;5.22;1.15;;;12.30;99.80;;;;;;5083648;28;20038;-55
2023/10/15 12:29:28;;;;;;;3.08;0.80;;;12.30;99.70;;;;;;5074189;28;20078;-54
2023/10/15 12:31:58;;;;;;;5.65;1.42;;;12.20;99.50;;;;;;5082557;28;20071;-56
2023/10/15 12:34:24;;;;;;;3.95;1.27;;;12.40;99.40;;;;;;5077970;28;20402;-57
2023/10/15 12:36:50;;;;;;;4.53;1.10;;;12.50;98.20;;;;;;5078733;28;20048;-58
2023/10/15 12:39:15;;;;;;;6.63;1.60;;;12.60;98.50;;;;;;5080542;28;20487;-57
2023/10/15 12:41:41;;;;;;;5.80;1.17;;;12.80;98.20;;;;;;5076359;28;20090;-57
2023/10/15 12:44:11;;;;;;;3.78;1.00;;;13.00;97.10;;;;;;5086318;28;20097;-59
2023/10/15 12:46:37;;;;;;;6.65;1.67;;;13.10;97.40;;;;;;5061691;28;20051;-57
2023/10/15 12:49:03;;;;;;;7.43;1.20;;;12.40;98.80;;;;;;5083728;28;20035;-58
2023/10/15 12:51:30;;;;;;;7.53;1.20;;;11.40;99.90;;;;;;5062094;28;20032;-57
2023/10/15 12:53:56;;;;;;;5.30;1.02;;;11.00;99.90;;;;;;5078464;28;20036;-57
2023/10/15 12:56:22;;;;;;;6.15;1.67;;;10.80;99.90;;;;;;5085384;28;20420;-57
2023/10/15 12:58:49;;;;;;;7.85;1.73;;;10.70;99.90;;;;;;5058188;28;20281;-56
2023/10/15 13:01:19;;;;;;;4.57;1.42;;;10.50;99.90;;;;;;5076741;28;20036;-57
2023/10/15 13:03:47;;;;;;;6.10;0.98;;;10.40;99.90;;;;;;5075699;28;20102;-57
2023/10/15 13:06:15;;;;;;;5.32;1.15;;;10.40;99.90;;;;;;5086877;28;20043;-57
2023/10/15 13:08:42;;;;;;;8.45;1.27;;;10.50;99.90;;;;;;5077123;28;20044;-58
2023/10/15 13:11:11;;;;;;;4.85;1.17;;;10.50;99.90;;;;;;5064783;28;20147;-59
2023/10/15 13:13:37;;;;;;;4.95;1.48;;;10.50;99.90;;;;;;5044154;28;20048;-57
2023/10/15 13:16:03;;;;;;;9.50;1.23;;;10.50;99.90;;;;;;5060845;28;20690;-58